Time;durP1;ratioP1;P1;durP2;ratioP2;P2;SDS_P1;SDS_P2;PMS_P1;PMS_P2;Temp;Humidity;BMP_temperature;BMP_pressure;BME280_temperature;BME280_humidity;BME280_pressure;Samples;Min_cycle;Max_cycle;Signal;HPM_P1;HPM_P2
2022/01/06 00:00:28;;;;;;;10.80;3.55;;;3.80;99.90;;;;;;4989073;28;20030;-75
2022/01/06 00:02:55;;;;;;;14.00;2.40;;;3.90;99.90;;;;;;4970636;28;20445;-74
2022/01/06 00:05:20;;;;;;;18.35;3.83;;;3.90;99.90;;;;;;4971607;28;20041;-74
2022/01/06 00:07:46;;;;;;;20.00;2.55;;;3.90;99.90;;;;;;4974913;28;21871;-74
2022/01/06 00:10:13;;;;;;;15.07;2.28;;;3.90;99.90;;;;;;4957876;28;20047;-74
2022/01/06 00:13:02;;;;;;;10.77;2.15;;;4.00;99.90;;;;;;4979381;28;20478;-74
2022/01/06 00:23:38;;;;;;;11.85;2.20;;;3.90;99.90;;;;;;4992838;28;20046;-74
2022/01/06 00:26:04;;;;;;;12.52;2.10;;;3.80;99.90;;;;;;4978442;28;20053;-74
2022/01/06 00:28:30;;;;;;;13.95;2.30;;;3.70;99.90;;;;;;4975150;28;20085;-74
2022/01/06 00:30:56;;;;;;;10.43;1.75;;;3.70;99.90;;;;;;4976857;28;20062;-75
2022/01/06 00:33:22;;;;;;;18.40;2.67;;;3.60;99.90;;;;;;4980033;28;20129;-74
2022/01/06 00:35:47;;;;;;;18.70;3.50;;;3.60;99.90;;;;;;4979127;28;20070;-74
2022/01/06 00:38:13;;;;;;;20.52;3.47;;;3.70;99.90;;;;;;4973449;28;20049;-74
2022/01/06 00:40:39;;;;;;;21.92;3.08;;;3.70;99.90;;;;;;4973527;28;20050;-74
2022/01/06 00:43:06;;;;;;;18.25;2.90;;;3.80;99.90;;;;;;4979586;28;20042;-74
2022/01/06 00:45:33;;;;;;;17.63;3.20;;;3.80;99.90;;;;;;4974678;28;20272;-74
2022/01/06 00:47:59;;;;;;;19.27;3.58;;;3.90;99.90;;;;;;4977803;28;20071;-74
2022/01/06 00:50:25;;;;;;;18.73;2.92;;;3.80;99.90;;;;;;4974191;28;20073;-74
2022/01/06 00:52:51;;;;;;;18.70;3.50;;;3.80;99.90;;;;;;4974110;28;20394;-74
2022/01/06 00:55:17;;;;;;;21.88;2.92;;;3.70;99.90;;;;;;4977009;28;20045;-74
2022/01/06 00:57:42;;;;;;;22.67;3.22;;;3.60;99.90;;;;;;4980534;28;20046;-74
2022/01/06 01:00:09;;;;;;;20.73;3.60;;;3.60;99.90;;;;;;4974602;28;20043;-74
2022/01/06 01:02:35;;;;;;;22.50;2.85;;;3.50;99.90;;;;;;4976883;28;20417;-74
2022/01/06 01:05:02;;;;;;;24.40;2.90;;;3.40;99.90;;;;;;4968297;28;20050;-74
2022/01/06 01:07:28;;;;;;;18.27;2.65;;;3.30;99.90;;;;;;4975560;28;20043;-73
2022/01/06 01:09:53;;;;;;;17.92;3.03;;;3.20;99.90;;;;;;4974926;28;20394;-74
2022/01/06 01:12:19;;;;;;;18.20;3.03;;;3.10;99.90;;;;;;4975511;28;20488;-74
2022/01/06 01:15:04;;;;;;;12.93;2.70;;;3.10;99.90;;;;;;4977491;28;20042;-73
2022/01/06 01:17:30;;;;;;;21.58;3.33;;;3.00;99.90;;;;;;4976568;28;20081;-73
2022/01/06 01:19:56;;;;;;;20.92;3.30;;;2.90;99.90;;;;;;4973963;28;21001;-73
2022/01/06 01:22:22;;;;;;;23.70;3.40;;;2.90;99.90;;;;;;4973623;28;20061;-73
2022/01/06 01:24:48;;;;;;;23.70;4.20;;;2.80;99.90;;;;;;4987311;28;20038;-73
2022/01/06 01:27:21;;;;;;;28.25;3.70;;;2.80;99.90;;;;;;4977960;28;20504;-74
2022/01/06 01:30:04;;;;;;;25.15;3.45;;;2.80;99.90;;;;;;4989730;28;20537;-73
2022/01/06 01:32:34;;;;;;;23.27;3.38;;;2.80;99.90;;;;;;4970142;28;20509;-74
2022/01/06 01:35:01;;;;;;;18.42;2.70;;;2.70;99.90;;;;;;4985131;28;20042;-74
2022/01/06 01:37:29;;;;;;;22.13;3.40;;;2.60;99.90;;;;;;4978862;28;20042;-74
2022/01/06 01:39:55;;;;;;;21.80;3.08;;;2.60;99.90;;;;;;4972955;28;20050;-74
2022/01/06 01:42:21;;;;;;;19.30;3.25;;;2.60;99.90;;;;;;4972518;28;20472;-74
2022/01/06 01:44:49;;;;;;;27.75;3.75;;;2.60;99.90;;;;;;4970504;28;20042;-74
2022/01/06 01:47:16;;;;;;;22.25;3.55;;;2.50;99.90;;;;;;4976101;28;20050;-74
2022/01/06 01:49:46;;;;;;;26.50;3.88;;;2.40;99.90;;;;;;4975373;28;20058;-74
2022/01/06 01:52:12;;;;;;;24.77;3.70;;;2.40;99.90;;;;;;4978276;28;20038;-74
2022/01/06 01:54:37;;;;;;;35.90;4.72;;;2.40;99.90;;;;;;4977217;28;20061;-74
2022/01/06 01:57:03;;;;;;;22.10;3.50;;;2.40;99.90;;;;;;4972215;28;20089;-74
2022/01/06 01:59:28;;;;;;;19.77;3.67;;;2.50;99.90;;;;;;4985424;28;20085;-74
2022/01/06 02:01:54;;;;;;;24.92;3.63;;;2.50;99.90;;;;;;4984851;28;20035;-74
2022/01/06 02:04:20;;;;;;;17.58;3.63;;;2.40;99.90;;;;;;4975746;28;20038;-74
2022/01/06 02:06:45;;;;;;;20.70;3.80;;;2.30;99.90;;;;;;4969653;28;20039;-74
2022/01/06 02:09:11;;;;;;;23.17;3.53;;;2.30;99.90;;;;;;4979675;28;20038;-74
2022/01/06 02:11:37;;;;;;;26.00;3.60;;;2.20;99.90;;;;;;4969797;28;20042;-74
2022/01/06 02:14:05;;;;;;;19.67;3.42;;;2.20;99.90;;;;;;4970615;28;20528;-74
2022/01/06 02:16:37;;;;;;;22.33;3.40;;;2.20;99.90;;;;;;4987097;28;20039;-74
2022/01/06 02:19:08;;;;;;;25.63;3.90;;;2.10;99.90;;;;;;4981914;28;20802;-74
2022/01/06 02:21:42;;;;;;;29.20;4.80;;;2.20;99.90;;;;;;4964455;28;20186;-74
2022/01/06 02:24:10;;;;;;;29.13;3.85;;;2.10;99.90;;;;;;4949651;28;20046;-74
2022/01/06 02:26:36;;;;;;;27.25;3.72;;;2.20;99.90;;;;;;4988012;28;20160;-74
2022/01/06 02:29:08;;;;;;;29.25;3.80;;;2.20;99.90;;;;;;4975459;28;20129;-74
2022/01/06 02:31:46;;;;;;;22.30;3.28;;;2.20;99.90;;;;;;4962506;28;20051;-74
2022/01/06 02:34:12;;;;;;;29.15;3.35;;;2.20;99.90;;;;;;4983739;28;20404;-74
2022/01/06 02:36:37;;;;;;;15.65;3.05;;;2.10;99.90;;;;;;4980373;28;20035;-74
2022/01/06 02:39:03;;;;;;;30.15;4.07;;;2.10;99.90;;;;;;4978852;28;20129;-74
2022/01/06 02:41:29;;;;;;;30.05;4.20;;;2.10;99.90;;;;;;4977806;28;20035;-74
2022/01/06 02:43:56;;;;;;;30.27;5.03;;;2.10;99.90;;;;;;4975272;28;20404;-74
2022/01/06 02:46:22;;;;;;;21.92;3.85;;;2.10;99.90;;;;;;4973710;28;20402;-74
2022/01/06 02:48:47;;;;;;;27.52;3.47;;;2.10;99.90;;;;;;4974442;28;20096;-74
2022/01/06 02:51:13;;;;;;;29.20;4.05;;;2.10;99.90;;;;;;4976073;28;20500;-74
2022/01/06 02:53:39;;;;;;;26.02;3.63;;;2.00;99.90;;;;;;4972384;28;20047;-74
2022/01/06 02:56:04;;;;;;;25.98;3.92;;;2.00;99.90;;;;;;4978747;28;20469;-73
2022/01/06 02:58:30;;;;;;;29.50;3.10;;;2.00;99.90;;;;;;4970525;28;20381;-73
2022/01/06 03:00:55;;;;;;;23.15;3.33;;;2.00;99.90;;;;;;4972464;28;20510;-73
2022/01/06 03:03:21;;;;;;;30.08;3.85;;;2.00;99.90;;;;;;4953347;28;20670;-74
2022/01/06 03:05:47;;;;;;;22.58;3.45;;;1.90;99.90;;;;;;4974132;28;20521;-73
2022/01/06 03:08:13;;;;;;;26.75;3.90;;;1.90;99.90;;;;;;4973167;28;20530;-73
2022/01/06 03:10:42;;;;;;;29.70;6.00;;;1.90;99.90;;;;;;4976678;28;20481;-74
2022/01/06 03:13:08;;;;;;;24.90;3.88;;;1.90;99.90;;;;;;4973791;28;20136;-74
2022/01/06 03:15:34;;;;;;;26.63;3.63;;;1.90;99.90;;;;;;4965082;28;20661;-74
2022/01/06 03:17:59;;;;;;;27.17;4.10;;;1.90;99.90;;;;;;4971356;28;20521;-74
2022/01/06 03:20:29;;;;;;;23.00;4.20;;;1.80;99.90;;;;;;4973914;28;20493;-73
2022/01/06 03:22:55;;;;;;;24.77;3.47;;;1.90;99.90;;;;;;4974324;28;20045;-74
2022/01/06 03:25:21;;;;;;;23.27;3.20;;;1.90;99.90;;;;;;4974270;28;20042;-74
2022/01/06 03:27:47;;;;;;;21.63;3.60;;;1.90;99.90;;;;;;4973650;28;20049;-74
2022/01/06 03:30:15;;;;;;;21.35;3.33;;;1.90;99.90;;;;;;4973429;28;20051;-73
2022/01/06 03:32:41;;;;;;;23.85;3.53;;;2.00;99.90;;;;;;4969436;28;20030;-73
2022/01/06 03:35:09;;;;;;;18.90;3.15;;;2.00;99.90;;;;;;4982771;28;20393;-75
2022/01/06 03:37:44;;;;;;;22.45;3.88;;;2.00;99.90;;;;;;4980258;28;20039;-75
2022/01/06 03:40:46;;;;;;;24.83;3.45;;;2.10;99.90;;;;;;4978421;28;20034;-75
2022/01/06 03:43:16;;;;;;;21.42;2.67;;;2.10;99.90;;;;;;4991058;28;20066;-73
2022/01/06 03:45:41;;;;;;;20.95;3.40;;;2.00;99.90;;;;;;4971107;28;20082;-73
2022/01/06 03:48:07;;;;;;;20.85;3.13;;;2.00;99.90;;;;;;4977688;28;20351;-74
2022/01/06 03:50:33;;;;;;;26.17;3.88;;;2.00;99.90;;;;;;4969732;28;20408;-74
2022/01/06 03:52:58;;;;;;;26.27;2.95;;;1.90;99.90;;;;;;4973030;28;20061;-74
2022/01/06 03:55:24;;;;;;;21.77;2.72;;;1.90;99.90;;;;;;4967082;28;20047;-75
2022/01/06 03:57:50;;;;;;;17.80;3.53;;;1.90;99.90;;;;;;4954797;28;20061;-75
2022/01/06 04:00:19;;;;;;;20.20;3.15;;;1.90;99.90;;;;;;4976779;28;20077;-75
2022/01/06 04:02:46;;;;;;;22.33;3.20;;;1.90;99.90;;;;;;4970822;28;20057;-75
2022/01/06 04:05:12;;;;;;;15.75;2.67;;;1.80;99.90;;;;;;4976215;28;20091;-75
2022/01/06 04:07:39;;;;;;;18.30;2.88;;;1.80;99.90;;;;;;4968791;28;20054;-75
2022/01/06 04:10:06;;;;;;;23.20;2.97;;;1.80;99.90;;;;;;4975914;28;20096;-75
2022/01/06 04:12:35;;;;;;;19.15;2.90;;;1.80;99.90;;;;;;4971224;28;20042;-75
2022/01/06 04:15:03;;;;;;;13.45;2.95;;;1.80;99.90;;;;;;4974331;28;20034;-75
2022/01/06 04:17:29;;;;;;;14.60;2.80;;;1.80;99.90;;;;;;4974323;28;20124;-75
2022/01/06 04:19:54;;;;;;;18.33;2.88;;;1.70;99.90;;;;;;4967255;28;20054;-75
2022/01/06 04:22:20;;;;;;;23.15;3.78;;;1.80;99.90;;;;;;4974416;28;20086;-75
2022/01/06 04:24:46;;;;;;;15.27;2.97;;;1.70;99.90;;;;;;4988131;28;20114;-75
2022/01/06 04:27:11;;;;;;;18.08;3.13;;;1.60;99.90;;;;;;4969827;28;20042;-75
2022/01/06 04:29:37;;;;;;;23.38;2.97;;;1.60;99.90;;;;;;4973274;28;20038;-75
2022/01/06 04:32:03;;;;;;;16.77;2.97;;;1.50;99.90;;;;;;4973017;28;20108;-75
2022/01/06 04:34:29;;;;;;;18.05;3.20;;;1.50;99.90;;;;;;4974408;28;20046;-75
2022/01/06 04:37:20;;;;;;;21.10;2.45;;;1.40;99.90;;;;;;4993245;28;20086;-75
2022/01/06 04:44:20;;;;;;;14.50;3.35;;;1.30;99.90;;;;;;4973721;28;20042;-75
2022/01/06 04:46:52;;;;;;;16.30;2.60;;;1.10;99.90;;;;;;4956779;28;20506;-74
2022/01/06 04:49:18;;;;;;;15.05;2.63;;;1.10;99.90;;;;;;4971614;28;20042;-74
2022/01/06 04:51:43;;;;;;;18.05;2.75;;;1.10;99.90;;;;;;4971526;28;20094;-74
2022/01/06 04:54:09;;;;;;;24.13;3.03;;;1.10;99.90;;;;;;4974616;28;20051;-74
2022/01/06 04:56:38;;;;;;;20.17;2.85;;;1.00;99.90;;;;;;4994880;28;20039;-73
2022/01/06 04:59:08;;;;;;;21.95;3.22;;;1.00;99.90;;;;;;4986040;23;20039;-76
2022/01/06 05:01:35;;;;;;;23.00;3.60;;;1.00;99.90;;;;;;4952546;28;20061;-76
2022/01/06 05:04:00;;;;;;;23.58;3.50;;;1.00;99.90;;;;;;4958767;28;20069;-76
2022/01/06 05:06:27;;;;;;;14.40;2.35;;;1.10;99.90;;;;;;4953413;28;20512;-76
2022/01/06 05:08:53;;;;;;;20.20;2.92;;;1.00;99.90;;;;;;4930923;28;20043;-76
2022/01/06 05:11:19;;;;;;;25.70;2.70;;;1.10;99.90;;;;;;4952321;28;20508;-76
2022/01/06 05:13:45;;;;;;;19.38;3.30;;;1.10;99.90;;;;;;4951728;28;20535;-76
2022/01/06 05:16:11;;;;;;;24.83;2.85;;;1.10;99.90;;;;;;4953863;28;20070;-76
2022/01/06 05:18:36;;;;;;;18.45;2.70;;;1.10;99.90;;;;;;4952732;28;20077;-76
2022/01/06 05:21:05;;;;;;;22.10;2.72;;;1.10;99.90;;;;;;4950566;28;20147;-76
2022/01/06 05:23:31;;;;;;;14.70;2.20;;;1.10;99.90;;;;;;4936667;28;20054;-76
2022/01/06 05:25:57;;;;;;;15.70;2.53;;;1.10;99.90;;;;;;4954579;28;20035;-76
2022/01/06 05:28:23;;;;;;;16.65;2.78;;;1.00;99.90;;;;;;4952202;28;20454;-76
2022/01/06 05:30:48;;;;;;;19.42;3.20;;;1.00;99.90;;;;;;4952381;28;20049;-76
2022/01/06 05:33:14;;;;;;;23.52;3.45;;;1.00;99.90;;;;;;4952945;28;20041;-76
2022/01/06 05:35:40;;;;;;;22.80;2.58;;;1.00;99.90;;;;;;4951035;28;20066;-76
2022/01/06 05:38:05;;;;;;;18.88;2.38;;;1.00;99.90;;;;;;4951715;28;20043;-77
2022/01/06 05:40:31;;;;;;;24.90;3.05;;;1.00;99.90;;;;;;4947920;28;20085;-77
2022/01/06 05:42:57;;;;;;;17.92;2.80;;;1.00;99.90;;;;;;4949719;28;20035;-77
2022/01/06 05:45:24;;;;;;;17.08;3.05;;;1.00;99.90;;;;;;4951596;28;20126;-77
2022/01/06 05:47:50;;;;;;;18.55;2.70;;;0.90;99.90;;;;;;4952641;28;20047;-77
2022/01/06 05:50:16;;;;;;;16.42;3.25;;;0.90;99.90;;;;;;4951819;28;20054;-76
2022/01/06 05:52:42;;;;;;;25.98;2.83;;;0.90;99.90;;;;;;4950348;28;20042;-77
2022/01/06 05:55:08;;;;;;;13.68;2.78;;;0.90;99.90;;;;;;4952035;28;20070;-76
2022/01/06 05:57:34;;;;;;;22.13;3.45;;;0.90;99.90;;;;;;4936936;28;20045;-77
2022/01/06 06:00:00;;;;;;;17.23;2.95;;;0.90;99.90;;;;;;4951118;28;20038;-76
2022/01/06 06:02:25;;;;;;;24.35;3.38;;;0.90;99.90;;;;;;4952517;28;20046;-76
2022/01/06 06:04:52;;;;;;;22.13;2.75;;;0.90;99.90;;;;;;4950036;28;20124;-76
2022/01/06 06:07:19;;;;;;;14.95;2.30;;;0.80;99.90;;;;;;4951774;28;20050;-76
2022/01/06 06:09:45;;;;;;;16.52;2.42;;;0.80;99.90;;;;;;4934437;28;20129;-76
2022/01/06 06:12:11;;;;;;;17.50;3.50;;;0.90;99.90;;;;;;4952660;28;20043;-76
2022/01/06 06:14:37;;;;;;;15.98;3.00;;;0.80;99.90;;;;;;4951834;28;20050;-76
2022/01/06 06:17:02;;;;;;;19.90;2.42;;;0.80;99.90;;;;;;4952482;28;20042;-76
2022/01/06 06:19:28;;;;;;;17.35;2.58;;;0.80;99.90;;;;;;4951451;28;20039;-76
2022/01/06 06:21:54;;;;;;;15.23;2.83;;;0.80;99.90;;;;;;4934217;28;20050;-75
2022/01/06 06:24:22;;;;;;;22.33;2.88;;;0.80;99.90;;;;;;4957494;28;20121;-75
2022/01/06 06:26:49;;;;;;;17.40;3.42;;;0.80;99.90;;;;;;4953787;28;20108;-75
2022/01/06 06:29:14;;;;;;;17.88;2.75;;;0.80;99.90;;;;;;4956408;28;20038;-75
2022/01/06 06:31:40;;;;;;;16.80;2.78;;;0.80;99.90;;;;;;4958587;28;20053;-75
2022/01/06 06:34:06;;;;;;;20.92;2.97;;;0.80;99.90;;;;;;4946603;28;20053;-75
2022/01/06 06:36:31;;;;;;;15.30;2.97;;;0.70;99.90;;;;;;4956604;28;20038;-75
2022/01/06 06:38:57;;;;;;;23.25;3.40;;;0.70;99.90;;;;;;4958668;28;20043;-75
2022/01/06 06:41:23;;;;;;;17.75;3.22;;;0.70;99.90;;;;;;4968975;28;20099;-75
2022/01/06 06:43:48;;;;;;;25.95;3.55;;;0.70;99.90;;;;;;4960846;28;20049;-75
2022/01/06 06:46:14;;;;;;;22.63;3.10;;;0.80;99.90;;;;;;4948618;28;20039;-75
2022/01/06 06:48:40;;;;;;;24.65;3.28;;;0.70;99.90;;;;;;4955456;28;20081;-75
2022/01/06 06:51:05;;;;;;;18.08;3.10;;;0.80;99.90;;;;;;4951027;28;20038;-75
2022/01/06 06:53:31;;;;;;;16.75;2.55;;;0.70;99.90;;;;;;4956186;28;20051;-75
2022/01/06 06:55:56;;;;;;;18.05;2.58;;;0.70;99.90;;;;;;4956351;28;20042;-75
2022/01/06 06:58:22;;;;;;;12.10;2.25;;;0.70;99.90;;;;;;4939344;28;20035;-75
2022/01/06 07:00:48;;;;;;;16.70;2.55;;;0.60;99.90;;;;;;4988438;28;20082;-75
2022/01/06 07:03:14;;;;;;;32.42;3.13;;;0.50;99.90;;;;;;4981403;28;20041;-75
2022/01/06 07:05:39;;;;;;;21.83;2.90;;;0.50;99.90;;;;;;4972357;28;20050;-75
2022/01/06 07:08:05;;;;;;;21.05;2.60;;;0.40;99.90;;;;;;4956042;28;20058;-75
2022/01/06 07:10:30;;;;;;;26.08;3.15;;;0.40;99.90;;;;;;4937499;29;20063;-75
2022/01/06 07:12:56;;;;;;;27.10;3.30;;;0.50;99.90;;;;;;4955160;28;20058;-75
2022/01/06 07:15:22;;;;;;;20.23;3.13;;;0.50;99.90;;;;;;4954995;28;20035;-75
2022/01/06 07:17:48;;;;;;;24.60;2.70;;;0.50;99.90;;;;;;4955867;28;20047;-75
2022/01/06 07:20:13;;;;;;;19.50;3.17;;;0.50;99.90;;;;;;4957914;28;20034;-75
2022/01/06 07:22:39;;;;;;;25.45;3.95;;;0.50;99.90;;;;;;4950988;28;20374;-75
2022/01/06 07:25:06;;;;;;;24.08;3.47;;;0.50;99.90;;;;;;4949385;28;20071;-75
2022/01/06 07:27:31;;;;;;;16.88;2.50;;;0.50;99.90;;;;;;4953164;28;20101;-75
2022/01/06 07:29:57;;;;;;;23.88;2.90;;;0.40;99.90;;;;;;4954765;28;20082;-75
2022/01/06 07:32:24;;;;;;;18.85;3.00;;;0.50;99.90;;;;;;4972415;28;20390;-75
2022/01/06 07:34:51;;;;;;;26.10;3.10;;;0.50;99.90;;;;;;4946892;28;20049;-74
2022/01/06 07:37:16;;;;;;;22.20;3.03;;;0.50;99.90;;;;;;4954957;28;20170;-75
2022/01/06 07:39:42;;;;;;;18.67;2.95;;;0.50;99.90;;;;;;4938503;28;20121;-74
2022/01/06 07:42:08;;;;;;;22.35;3.03;;;0.50;99.90;;;;;;4956136;28;20038;-74
2022/01/06 07:44:34;;;;;;;20.38;3.17;;;0.50;99.90;;;;;;4955787;28;20043;-75
2022/01/06 07:47:00;;;;;;;18.73;3.05;;;0.50;99.90;;;;;;4951512;28;20088;-75
2022/01/06 07:49:26;;;;;;;17.10;2.95;;;0.50;99.90;;;;;;4952718;28;20121;-75
2022/01/06 07:51:53;;;;;;;23.58;3.30;;;0.50;99.90;;;;;;4958095;28;20046;-75
2022/01/06 07:54:27;;;;;;;23.35;3.38;;;0.50;99.90;;;;;;4948046;28;20057;-73
2022/01/06 07:56:55;;;;;;;28.75;3.50;;;0.50;99.90;;;;;;4955165;28;20049;-73
2022/01/06 07:59:21;;;;;;;24.10;3.28;;;0.50;99.90;;;;;;4954355;28;20039;-73
2022/01/06 08:01:47;;;;;;;24.45;3.80;;;0.50;99.90;;;;;;4938755;28;20084;-73
2022/01/06 08:04:12;;;;;;;19.48;2.88;;;0.50;99.90;;;;;;4963579;28;20468;-73
2022/01/06 08:06:38;;;;;;;20.85;3.20;;;0.50;99.90;;;;;;4970437;28;20078;-73
2022/01/06 08:09:04;;;;;;;25.20;3.28;;;0.50;99.90;;;;;;4970907;28;20413;-73
2022/01/06 08:11:29;;;;;;;26.65;3.40;;;0.50;99.90;;;;;;4953233;28;20054;-73
2022/01/06 08:13:55;;;;;;;24.42;3.47;;;0.40;99.90;;;;;;4968344;28;20409;-73
2022/01/06 08:16:20;;;;;;;21.00;2.97;;;0.40;99.90;;;;;;4953013;28;20042;-73
2022/01/06 08:18:46;;;;;;;22.30;3.60;;;0.40;99.90;;;;;;4938724;28;20039;-73
2022/01/06 08:21:12;;;;;;;21.75;4.13;;;0.40;99.90;;;;;;4953997;28;20712;-73
2022/01/06 08:23:37;;;;;;;30.02;3.40;;;0.40;99.90;;;;;;4954780;28;20047;-73
2022/01/06 08:26:03;;;;;;;22.88;3.55;;;0.40;99.90;;;;;;4970010;28;20057;-73
2022/01/06 08:28:29;;;;;;;24.25;3.80;;;0.40;99.90;;;;;;4954487;28;20133;-73
2022/01/06 08:30:55;;;;;;;18.40;3.40;;;0.50;99.90;;;;;;4956672;28;20165;-73
2022/01/06 08:33:20;;;;;;;21.10;3.45;;;0.50;99.90;;;;;;4953563;28;20402;-73
2022/01/06 08:35:47;;;;;;;24.48;3.90;;;0.50;99.90;;;;;;4953267;28;20050;-73
2022/01/06 08:38:13;;;;;;;26.90;3.50;;;0.50;99.90;;;;;;4957054;28;20038;-73
2022/01/06 08:40:38;;;;;;;20.88;3.85;;;0.50;99.90;;;;;;4942471;28;20038;-73
2022/01/06 08:43:04;;;;;;;25.73;3.97;;;0.60;99.90;;;;;;4957853;28;20480;-73
2022/01/06 08:45:32;;;;;;;21.13;3.17;;;0.70;99.90;;;;;;4958419;28;20050;-73
2022/01/06 08:47:58;;;;;;;24.60;3.85;;;0.70;99.90;;;;;;4953813;28;20039;-73
2022/01/06 08:50:24;;;;;;;21.85;3.83;;;0.70;99.90;;;;;;4957554;28;20544;-73
2022/01/06 08:52:51;;;;;;;23.63;3.70;;;0.70;99.90;;;;;;4955727;28;20051;-73
2022/01/06 08:55:16;;;;;;;22.52;3.85;;;0.70;99.90;;;;;;4967186;28;20035;-73
2022/01/06 08:57:42;;;;;;;19.77;3.72;;;0.70;99.90;;;;;;4980814;28;20477;-73
2022/01/06 09:00:10;;;;;;;26.52;3.90;;;0.80;99.90;;;;;;4978045;28;20511;-73
2022/01/06 09:02:36;;;;;;;30.40;4.10;;;0.80;99.90;;;;;;4959333;28;20097;-73
2022/01/06 09:05:05;;;;;;;22.80;3.75;;;0.80;99.90;;;;;;4958898;28;20039;-73
2022/01/06 09:07:34;;;;;;;26.75;4.10;;;0.90;99.90;;;;;;4956460;28;20093;-73
2022/01/06 09:10:00;;;;;;;21.67;3.63;;;0.90;99.90;;;;;;4973602;28;20035;-73
2022/01/06 09:12:26;;;;;;;42.08;7.10;;;0.90;99.90;;;;;;4957080;28;20051;-73
2022/01/06 09:14:52;;;;;;;21.27;3.90;;;0.80;99.90;;;;;;4957244;28;20045;-73
2022/01/06 09:17:17;;;;;;;24.63;4.60;;;0.90;99.90;;;;;;4950682;28;20129;-73
2022/01/06 09:19:43;;;;;;;26.50;3.65;;;1.00;99.90;;;;;;4956031;28;20043;-73
2022/01/06 09:22:09;;;;;;;22.73;4.13;;;1.00;99.90;;;;;;4948443;28;20394;-73
2022/01/06 09:24:34;;;;;;;26.35;4.18;;;1.20;99.90;;;;;;4956210;28;20413;-73
2022/01/06 09:27:00;;;;;;;37.13;5.15;;;1.30;99.90;;;;;;4956042;28;20548;-73
2022/01/06 09:29:26;;;;;;;25.92;4.25;;;1.30;99.90;;;;;;4971523;28;20559;-73
2022/01/06 09:31:51;;;;;;;30.60;5.03;;;1.40;99.90;;;;;;4961636;28;20077;-73
2022/01/06 09:34:17;;;;;;;27.55;4.95;;;1.50;99.90;;;;;;4972358;28;20069;-73
2022/01/06 09:36:43;;;;;;;26.38;3.80;;;1.50;99.90;;;;;;4971435;28;20512;-73
2022/01/06 09:39:10;;;;;;;26.08;3.90;;;1.60;99.90;;;;;;4959645;28;20042;-73
2022/01/06 09:41:36;;;;;;;28.73;5.25;;;1.70;99.90;;;;;;4954794;28;20046;-74
2022/01/06 09:44:03;;;;;;;20.55;4.00;;;1.70;99.90;;;;;;4944796;28;20043;-74
2022/01/06 09:46:30;;;;;;;22.63;3.95;;;1.80;99.90;;;;;;4961050;28;20046;-74
2022/01/06 09:48:59;;;;;;;26.92;3.97;;;1.90;99.90;;;;;;4959962;28;20030;-74
2022/01/06 09:51:26;;;;;;;28.65;4.38;;;1.90;99.90;;;;;;4955735;28;20516;-74
2022/01/06 09:53:54;;;;;;;25.50;3.92;;;2.00;99.90;;;;;;4957783;28;20098;-74
2022/01/06 09:56:20;;;;;;;30.38;4.60;;;2.20;99.90;;;;;;4939471;28;20078;-74
2022/01/06 09:58:46;;;;;;;27.55;3.80;;;2.30;99.90;;;;;;4954854;28;20460;-74
2022/01/06 10:01:12;;;;;;;33.53;4.50;;;2.40;99.90;;;;;;4951604;28;20733;-74
2022/01/06 10:03:41;;;;;;;28.38;4.35;;;2.50;99.90;;;;;;4958755;28;20094;-74
2022/01/06 10:06:16;;;;;;;21.42;3.80;;;2.60;99.90;;;;;;4958142;28;20409;-75
2022/01/06 10:08:47;;;;;;;26.67;4.47;;;2.70;99.90;;;;;;4965454;28;20070;-75
2022/01/06 10:11:18;;;;;;;30.88;5.15;;;2.80;99.90;;;;;;4939157;28;20393;-77
2022/01/06 10:13:46;;;;;;;27.17;4.03;;;2.80;99.90;;;;;;4950616;28;20042;-75
2022/01/06 10:16:19;;;;;;;22.85;3.80;;;2.90;99.90;;;;;;4941646;28;20430;-75
2022/01/06 10:19:02;;;;;;;22.88;3.85;;;2.90;99.90;;;;;;4957411;28;20402;-74
2022/01/06 10:21:38;;;;;;;;;;;3.00;99.90;;;;;;4977235;28;20077;-74
2022/01/06 10:24:10;;;;;;;26.00;4.28;;;3.00;99.90;;;;;;4954909;28;19945;-74
2022/01/06 10:26:37;;;;;;;22.20;3.88;;;3.10;99.90;;;;;;4954378;28;20390;-74
2022/01/06 10:29:07;;;;;;;25.25;4.18;;;3.20;99.90;;;;;;4954112;28;20506;-74
2022/01/06 10:31:33;;;;;;;28.55;4.90;;;3.20;99.90;;;;;;4961837;28;20062;-74
2022/01/06 10:34:05;;;;;;;27.27;4.45;;;3.40;99.90;;;;;;4955773;28;20047;-74
2022/01/06 10:36:32;;;;;;;18.45;5.03;;;3.50;99.90;;;;;;4945868;28;20082;-74
2022/01/06 10:39:00;;;;;;;24.08;4.55;;;3.60;99.90;;;;;;4954458;28;20449;-74
2022/01/06 10:41:28;;;;;;;25.88;4.15;;;3.70;99.90;;;;;;4971565;28;20404;-74
2022/01/06 10:43:56;;;;;;;18.50;4.28;;;3.80;99.90;;;;;;4958536;28;20050;-74
2022/01/06 10:46:35;;;;;;;24.58;3.88;;;4.00;99.90;;;;;;4958189;28;20543;-74
2022/01/06 10:49:07;;;;;;;16.08;3.78;;;4.10;99.90;;;;;;4961901;28;20038;-74
2022/01/06 10:51:45;;;;;;;21.50;5.40;;;4.20;99.90;;;;;;4953448;28;20054;-74
2022/01/06 10:54:14;;;;;;;18.17;3.47;;;4.30;99.90;;;;;;4939257;28;20452;-74
2022/01/06 10:56:40;;;;;;;28.10;5.63;;;4.40;99.90;;;;;;4955092;28;20093;-74
2022/01/06 10:59:07;;;;;;;19.98;4.00;;;4.50;99.90;;;;;;4955185;28;20394;-74
2022/01/06 11:01:34;;;;;;;17.13;3.80;;;4.60;99.90;;;;;;4949977;28;20042;-74
2022/01/06 11:04:01;;;;;;;29.30;4.40;;;4.60;99.90;;;;;;4961989;28;20134;-75
2022/01/06 11:06:27;;;;;;;21.95;3.60;;;4.70;99.90;;;;;;4956798;28;20409;-75
2022/01/06 11:08:53;;;;;;;20.00;3.75;;;4.80;99.90;;;;;;4954671;28;20579;-75
2022/01/06 11:13:53;;;;;;;23.45;3.75;;;5.00;99.90;;;;;;4955194;28;20604;-76
2022/01/06 11:16:20;;;;;;;22.13;4.70;;;5.00;99.90;;;;;;4934097;28;20146;-76
2022/01/06 11:18:57;;;;;;;20.92;4.07;;;5.10;99.90;;;;;;4950345;28;20489;-76
2022/01/06 11:21:39;;;;;;;20.90;3.72;;;5.20;99.90;;;;;;4950226;28;21009;-76
2022/01/06 11:24:10;;;;;;;17.33;4.03;;;5.30;99.90;;;;;;4953154;28;20522;-76
2022/01/06 11:26:35;;;;;;;22.52;3.88;;;5.30;99.90;;;;;;4950985;28;20390;-76
2022/01/06 11:29:02;;;;;;;20.20;4.25;;;5.40;99.90;;;;;;4949996;28;20041;-76
2022/01/06 11:31:40;;;;;;;20.67;4.07;;;5.50;99.90;;;;;;4947710;28;20393;-75
2022/01/06 11:34:36;;;;;;;17.77;3.80;;;5.50;99.90;;;;;;4953306;28;20413;-75
2022/01/06 11:37:13;;;;;;;19.35;3.22;;;5.50;99.90;;;;;;4947385;28;20128;-75
2022/01/06 11:39:39;;;;;;;21.48;3.83;;;5.60;99.90;;;;;;4931151;28;20039;-75
2022/01/06 11:42:31;;;;;;;19.30;3.95;;;5.60;99.90;;;;;;4950190;28;20039;-75
2022/01/06 11:44:58;;;;;;;22.07;3.80;;;5.70;99.90;;;;;;4947826;28;20425;-75
2022/01/06 11:47:35;;;;;;;22.30;3.88;;;5.60;99.90;;;;;;4951805;28;20069;-75
2022/01/06 11:50:17;;;;;;;20.77;3.75;;;5.60;99.90;;;;;;4950309;28;20128;-75
2022/01/06 11:52:50;;;;;;;22.25;4.22;;;5.70;99.90;;;;;;4945595;28;20035;-74
2022/01/06 11:55:16;;;;;;;19.75;4.00;;;5.80;99.90;;;;;;4934532;28;20050;-74
2022/01/06 11:57:41;;;;;;;19.25;3.40;;;5.80;99.90;;;;;;4950434;28;20485;-74
2022/01/06 12:00:23;;;;;;;18.77;3.70;;;5.90;99.90;;;;;;4948336;28;20486;-74
2022/01/06 12:02:59;;;;;;;19.85;3.80;;;5.90;99.90;;;;;;4947327;28;20039;-74
2022/01/06 12:05:26;;;;;;;19.55;3.80;;;6.00;99.90;;;;;;4952705;28;20099;-74
2022/01/06 12:07:53;;;;;;;17.95;3.80;;;6.00;99.90;;;;;;4955063;28;20074;-75
2022/01/06 12:10:20;;;;;;;20.85;3.88;;;6.10;99.90;;;;;;4953237;28;20050;-75
2022/01/06 12:12:48;;;;;;;24.48;3.83;;;6.10;99.90;;;;;;4952521;28;20047;-75
2022/01/06 12:15:16;;;;;;;24.98;4.15;;;6.10;99.90;;;;;;4952108;28;20564;-74
2022/01/06 12:17:48;;;;;;;20.45;3.30;;;6.20;99.90;;;;;;4945642;28;20072;-75
2022/01/06 12:20:23;;;;;;;22.40;3.78;;;6.30;99.90;;;;;;4952787;28;20047;-75
2022/01/06 12:22:49;;;;;;;23.25;4.20;;;6.40;99.90;;;;;;4951371;28;20050;-76
2022/01/06 12:25:15;;;;;;;19.48;4.85;;;6.50;99.90;;;;;;4931841;28;22217;-75
2022/01/06 12:27:49;;;;;;;14.80;3.65;;;6.60;99.90;;;;;;4933970;28;20042;-75
2022/01/06 12:30:17;;;;;;;16.02;3.53;;;6.70;99.90;;;;;;4954034;28;20045;-75
2022/01/06 12:32:53;;;;;;;22.02;3.85;;;6.80;99.90;;;;;;4936360;28;20046;-76
2022/01/06 12:35:18;;;;;;;18.15;3.60;;;6.90;99.90;;;;;;4957133;28;20042;-75
2022/01/06 12:37:44;;;;;;;19.38;3.47;;;6.90;99.90;;;;;;4951717;28;20046;-75
2022/01/06 12:40:19;;;;;;;18.00;3.60;;;6.80;99.90;;;;;;4987859;23;20462;-76
2022/01/06 12:42:47;;;;;;;24.17;4.13;;;6.70;99.90;;;;;;5001728;28;20077;-76
2022/01/06 12:45:16;;;;;;;21.05;4.22;;;6.70;99.90;;;;;;4992471;28;20472;-76
2022/01/06 12:47:48;;;;;;;17.88;3.33;;;6.90;99.90;;;;;;4990327;28;20091;-76
2022/01/06 12:51:07;;;;;;;20.17;3.38;;;6.90;99.90;;;;;;4978009;28;20044;-76
2022/01/06 12:53:47;;;;;;;15.23;3.35;;;7.10;99.90;;;;;;4979997;28;20049;-76
2022/01/06 12:56:43;;;;;;;12.02;2.83;;;7.10;99.90;;;;;;4974136;28;20041;-76
2022/01/06 12:59:13;;;;;;;20.25;3.42;;;7.20;99.90;;;;;;4953893;28;20534;-76
2022/01/06 13:01:44;;;;;;;16.75;3.28;;;7.30;99.90;;;;;;4975590;28;20500;-77
2022/01/06 13:04:40;;;;;;;17.75;3.60;;;7.40;99.90;;;;;;4976613;28;20038;-77
2022/01/06 13:07:23;;;;;;;25.45;4.15;;;7.50;99.90;;;;;;4990662;28;20034;-77